Kipawa, Canada
Current Conditions -  °F | °C
As of 5:00 PM on Tuesday 25 Nov 2014 (Local Time) from CYYB Reporting Station
Snow Showers Snow Showers  
Wind Chill: 14°   Ceiling: 1000
Heat Index: 25°   Visibility: 4mi
Dew Point: 23°   Wind: 12mph
Humidity: 93%   Direction: 280°W
Pressure: 29.81"   Gusts: 21mph
Location:  46.77°N, 78.98°W
Report Text: CYYB 252200Z 28010G18KT 4SM -SHSN BKN010 BKN070 OVC250 M04/M05 A2981 RMK SF5AC1CI2 PRESRR SLP112
Loading
Personal Weather Stations






























Interactive Weather Map New forecast layout! Learn more

10-Day Weather Forecast

Advertisements
Track Severe Weather on mobile